Time;durP1;ratioP1;P1;durP2;ratioP2;P2;SDS_P1;SDS_P2;PMS_P1;PMS_P2;Temp;Humidity;BMP_temperature;BMP_pressure;BME280_temperature;BME280_humidity;BME280_pressure;Samples;Min_cycle;Max_cycle;Signal;HPM_P1;HPM_P2
2021/09/12 00:03:33;;;;;;;15.43;6.50;;;;;;;;;;8171659;28;20373;-71
2021/09/12 00:07:39;;;;;;;16.90;7.75;;;;;;;;;;8192160;28;20050;-72
2021/09/12 00:11:45;;;;;;;19.48;6.80;;;;;;;;;;8175237;28;20503;-71
2021/09/12 00:15:50;;;;;;;13.65;6.53;;;;;;;;;;8174136;28;20064;-71
2021/09/12 00:19:54;;;;;;;14.93;6.45;;;;;;;;;;8176270;28;20446;-71
2021/09/12 00:23:59;;;;;;;13.48;6.63;;;;;;;;;;8159874;28;20469;-70
2021/09/12 00:28:05;;;;;;;12.88;6.35;;;;;;;;;;8175334;28;20065;-71
2021/09/12 00:32:10;;;;;;;17.13;7.57;;;;;;;;;;8190468;28;20460;-71
2021/09/12 00:36:14;;;;;;;12.55;6.57;;;;;;;;;;8173554;28;20346;-71
2021/09/12 00:40:23;;;;;;;16.35;6.60;;;;;;;;;;8172791;28;20361;-71
2021/09/12 00:44:27;;;;;;;14.80;6.40;;;;;;;;;;8174501;28;20050;-71
2021/09/12 00:48:36;;;;;;;11.80;6.50;;;;;;;;;;8188350;28;20405;-71
2021/09/12 00:52:46;;;;;;;13.00;6.18;;;;;;;;;;8174733;28;20041;-71
2021/09/12 00:56:53;;;;;;;18.15;7.05;;;;;;;;;;8155413;28;20064;-71
2021/09/12 01:00:57;;;;;;;13.63;6.15;;;;;;;;;;8173192;28;20064;-72
2021/09/12 01:05:03;;;;;;;16.33;6.55;;;;;;;;;;8157835;28;20060;-72
2021/09/12 01:09:09;;;;;;;15.18;6.38;;;;;;;;;;8174665;28;20484;-71
2021/09/12 01:13:13;;;;;;;11.90;6.57;;;;;;;;;;8181094;28;20478;-71
2021/09/12 01:17:25;;;;;;;15.18;6.20;;;;;;;;;;8180531;28;20069;-71
2021/09/12 01:21:32;;;;;;;14.25;6.82;;;;;;;;;;8181358;28;20438;-72
2021/09/12 01:25:37;;;;;;;14.13;6.47;;;;;;;;;;8196875;28;20376;-72
2021/09/12 01:29:41;;;;;;;15.60;6.47;;;;;;;;;;8197365;28;20372;-72
2021/09/12 01:33:45;;;;;;;12.55;6.15;;;;;;;;;;8179733;28;20353;-72
2021/09/12 01:37:51;;;;;;;14.40;7.13;;;;;;;;;;8177299;28;20380;-71
2021/09/12 01:41:55;;;;;;;13.77;6.43;;;;;;;;;;8197591;28;20357;-71
2021/09/12 01:46:01;;;;;;;13.02;7.28;;;;;;;;;;8197892;28;20429;-72
2021/09/12 01:50:06;;;;;;;11.15;6.88;;;;;;;;;;8161259;28;20483;-71
2021/09/12 01:54:10;;;;;;;15.25;7.75;;;;;;;;;;8178117;28;20104;-71
2021/09/12 01:58:14;;;;;;;16.85;7.95;;;;;;;;;;8196612;28;20485;-72
2021/09/12 02:02:18;;;;;;;15.73;7.53;;;;;;;;;;8195846;28;20381;-71
2021/09/12 02:06:24;;;;;;;14.27;8.00;;;;;;;;;;8177623;28;20045;-72
2021/09/12 02:10:29;;;;;;;12.48;7.63;;;;;;;;;;8176511;28;20072;-72
2021/09/12 02:14:34;;;;;;;18.35;8.35;;;;;;;;;;8196463;28;20469;-71
2021/09/12 02:18:40;;;;;;;13.48;8.00;;;;;;;;;;8176842;28;20077;-71
2021/09/12 02:22:45;;;;;;;17.50;8.40;;;;;;;;;;8194624;28;20465;-71
2021/09/12 02:26:49;;;;;;;18.85;8.70;;;;;;;;;;8192596;28;20060;-72
2021/09/12 02:30:53;;;;;;;15.75;7.60;;;;;;;;;;8175914;28;20453;-71
2021/09/12 02:34:57;;;;;;;15.90;8.20;;;;;;;;;;8177847;28;20484;-71
2021/09/12 02:39:02;;;;;;;12.55;7.57;;;;;;;;;;8175324;28;20542;-72
2021/09/12 02:43:07;;;;;;;17.25;8.55;;;;;;;;;;8177280;28;20341;-71
2021/09/12 02:47:12;;;;;;;15.07;7.60;;;;;;;;;;8159141;28;20380;-71
2021/09/12 02:51:16;;;;;;;16.35;7.85;;;;;;;;;;8177018;28;20064;-71
2021/09/12 02:55:21;;;;;;;12.23;8.05;;;;;;;;;;8177658;28;20408;-71
2021/09/12 02:59:26;;;;;;;14.73;8.15;;;;;;;;;;8193816;28;20050;-71
2021/09/12 03:03:30;;;;;;;13.20;8.00;;;;;;;;;;8191746;28;20461;-72
2021/09/12 03:07:35;;;;;;;19.45;9.45;;;;;;;;;;8193958;28;20037;-71
2021/09/12 03:11:40;;;;;;;15.20;8.48;;;;;;;;;;8193264;28;20364;-71
2021/09/12 03:15:46;;;;;;;14.32;7.55;;;;;;;;;;8176042;28;20595;-72
2021/09/12 03:19:51;;;;;;;18.33;8.23;;;;;;;;;;8173890;28;20045;-71
2021/09/12 03:23:55;;;;;;;15.63;7.63;;;;;;;;;;8176159;28;20408;-71
2021/09/12 03:28:00;;;;;;;15.82;7.88;;;;;;;;;;8193229;28;20042;-71
2021/09/12 03:32:07;;;;;;;14.80;8.30;;;;;;;;;;8192160;28;20034;-71
2021/09/12 03:36:11;;;;;;;12.80;7.38;;;;;;;;;;8190768;28;20449;-72
2021/09/12 03:40:16;;;;;;;12.93;7.80;;;;;;;;;;8192557;28;20350;-71
2021/09/12 03:44:22;;;;;;;16.20;8.05;;;;;;;;;;8175035;28;20370;-71
2021/09/12 03:48:27;;;;;;;12.93;8.00;;;;;;;;;;8145055;28;20073;-72
2021/09/12 03:52:33;;;;;;;14.50;8.07;;;;;;;;;;8189357;28;20061;-71
2021/09/12 03:56:36;;;;;;;21.02;8.63;;;;;;;;;;8192068;28;20389;-72
2021/09/12 04:00:42;;;;;;;17.13;8.10;;;;;;;;;;8190844;28;20468;-71
2021/09/12 04:04:47;;;;;;;17.35;8.57;;;;;;;;;;8192169;28;20473;-71
2021/09/12 04:08:53;;;;;;;17.60;8.52;;;;;;;;;;8174711;28;20042;-72
2021/09/12 04:12:59;;;;;;;18.35;8.93;;;;;;;;;;8174043;28;20034;-72
2021/09/12 04:17:05;;;;;;;15.70;8.35;;;;;;;;;;8192436;28;20049;-72
2021/09/12 04:21:10;;;;;;;16.48;8.98;;;;;;;;;;8174562;28;20072;-72
2021/09/12 04:25:13;;;;;;;15.10;8.30;;;;;;;;;;8190143;28;20050;-72
2021/09/12 04:29:19;;;;;;;15.38;7.88;;;;;;;;;;8174651;28;20372;-71
2021/09/12 04:33:25;;;;;;;13.05;7.63;;;;;;;;;;8193189;28;20359;-72
2021/09/12 04:37:30;;;;;;;13.60;7.72;;;;;;;;;;8191236;28;20064;-72
2021/09/12 04:41:34;;;;;;;18.42;8.07;;;;;;;;;;8172598;28;20437;-72
2021/09/12 04:45:38;;;;;;;13.15;7.78;;;;;;;;;;8173579;28;20461;-72
2021/09/12 04:49:43;;;;;;;11.75;8.18;;;;;;;;;;8184109;28;20053;-72
2021/09/12 04:53:48;;;;;;;15.07;8.35;;;;;;;;;;8207193;28;20042;-72
2021/09/12 04:57:53;;;;;;;16.63;8.68;;;;;;;;;;8205448;28;20063;-72
2021/09/12 05:01:58;;;;;;;12.60;8.02;;;;;;;;;;8191297;28;20365;-72
2021/09/12 05:06:02;;;;;;;17.60;8.10;;;;;;;;;;8189299;28;20342;-72
2021/09/12 05:10:09;;;;;;;17.60;9.20;;;;;;;;;;8207564;28;20455;-72
2021/09/12 05:14:14;;;;;;;15.73;8.55;;;;;;;;;;8204341;28;20064;-71
2021/09/12 05:18:18;;;;;;;17.45;9.95;;;;;;;;;;8190570;28;20045;-71
2021/09/12 05:22:23;;;;;;;20.63;11.25;;;;;;;;;;8204719;28;20046;-71
2021/09/12 05:26:29;;;;;;;15.48;9.82;;;;;;;;;;8224013;28;20056;-71
2021/09/12 05:30:32;;;;;;;18.35;10.38;;;;;;;;;;8202178;28;20361;-71
2021/09/12 05:34:36;;;;;;;20.02;9.70;;;;;;;;;;8173011;28;20072;-71
2021/09/12 05:38:41;;;;;;;27.85;13.85;;;;;;;;;;8191636;28;20457;-71
2021/09/12 05:42:48;;;;;;;18.98;10.80;;;;;;;;;;8198544;28;20464;-71
2021/09/12 05:46:53;;;;;;;22.33;11.10;;;;;;;;;;8190322;28;20484;-72
2021/09/12 05:50:57;;;;;;;20.50;10.70;;;;;;;;;;8206433;28;20480;-72
2021/09/12 05:55:02;;;;;;;20.05;11.35;;;;;;;;;;8223326;28;20364;-72
2021/09/12 05:59:07;;;;;;;22.30;11.40;;;;;;;;;;8226089;28;20029;-71
2021/09/12 06:03:12;;;;;;;26.13;12.93;;;;;;;;;;8195558;28;20357;-71
2021/09/12 06:07:16;;;;;;;20.52;12.02;;;;;;;;;;8210695;28;20041;-73
2021/09/12 06:11:21;;;;;;;23.15;12.52;;;;;;;;;;8228449;28;20490;-71
2021/09/12 06:15:26;;;;;;;19.35;11.57;;;;;;;;;;8210460;28;20376;-71
2021/09/12 06:19:30;;;;;;;22.67;12.15;;;;;;;;;;8193218;28;20350;-72
2021/09/12 06:23:34;;;;;;;21.08;11.55;;;;;;;;;;8206369;28;20373;-71
2021/09/12 06:27:41;;;;;;;20.15;12.35;;;;;;;;;;8210156;28;20483;-71
2021/09/12 06:31:45;;;;;;;22.25;11.00;;;;;;;;;;8227674;28;20339;-71
2021/09/12 06:35:49;;;;;;;24.08;11.45;;;;;;;;;;8210234;28;20375;-71
2021/09/12 06:39:53;;;;;;;21.15;11.90;;;;;;;;;;8209869;28;20349;-71
2021/09/12 06:43:59;;;;;;;22.35;10.82;;;;;;;;;;8225861;28;20460;-71
2021/09/12 06:48:05;;;;;;;19.38;10.88;;;;;;;;;;8208842;28;20457;-71
2021/09/12 06:52:11;;;;;;;25.25;11.98;;;;;;;;;;8224582;28;20340;-71
2021/09/12 06:56:15;;;;;;;19.40;12.57;;;;;;;;;;8208757;28;20063;-71
2021/09/12 07:00:20;;;;;;;20.48;11.15;;;;;;;;;;8226210;28;20478;-71
2021/09/12 07:04:25;;;;;;;24.92;13.25;;;;;;;;;;8226903;28;20345;-71
2021/09/12 07:08:29;;;;;;;24.45;13.00;;;;;;;;;;8228638;28;20460;-71
2021/09/12 07:12:33;;;;;;;34.63;14.75;;;;;;;;;;8224120;28;20361;-71
2021/09/12 07:16:36;;;;;;;29.42;14.10;;;;;;;;;;8205277;28;20483;-71
2021/09/12 07:20:41;;;;;;;28.02;14.82;;;;;;;;;;8226076;28;20720;-71
2021/09/12 07:24:46;;;;;;;36.65;16.25;;;;;;;;;;8226736;28;20537;-72
2021/09/12 07:28:50;;;;;;;29.45;14.40;;;;;;;;;;8207811;28;20348;-71
2021/09/12 07:32:54;;;;;;;25.02;13.55;;;;;;;;;;8207601;28;20449;-71
2021/09/12 07:36:58;;;;;;;28.27;13.52;;;;;;;;;;8225218;28;20460;-71
2021/09/12 07:41:02;;;;;;;33.80;13.43;;;;;;;;;;8208231;28;20483;-71
2021/09/12 07:45:07;;;;;;;29.17;13.00;;;;;;;;;;8223485;28;20108;-72
2021/09/12 07:49:13;;;;;;;22.83;11.95;;;;;;;;;;8188691;28;20372;-72
2021/09/12 07:53:16;;;;;;;22.83;10.75;;;;;;;;;;8174421;28;20375;-71
2021/09/12 07:57:21;;;;;;;20.13;11.40;;;;;;;;;;8189980;28;20386;-71
2021/09/12 08:01:27;;;;;;;27.35;12.25;;;;;;;;;;8192322;28;20377;-71
2021/09/12 08:05:31;;;;;;;23.10;11.60;;;;;;;;;;8191369;28;20368;-71
2021/09/12 08:09:35;;;;;;;21.80;11.80;;;;;;;;;;8193612;28;20389;-70
2021/09/12 08:13:39;;;;;;;23.23;10.75;;;;;;;;;;8177948;28;20054;-72
2021/09/12 08:17:49;;;;;;;19.88;10.40;;;;;;;;;;8192317;28;20575;-71
2021/09/12 08:21:54;;;;;;;21.42;11.27;;;;;;;;;;8195326;28;20468;-71
2021/09/12 08:25:59;;;;;;;18.98;9.52;;;;;;;;;;8176545;28;20472;-72
2021/09/12 08:30:04;;;;;;;17.92;8.82;;;;;;;;;;8191139;28;20388;-71
2021/09/12 08:34:08;;;;;;;19.50;9.05;;;;;;;;;;8174249;28;20366;-71
2021/09/12 08:38:15;;;;;;;12.55;7.32;;;;;;;;;;8173145;28;20460;-70
2021/09/12 08:42:20;;;;;;;17.65;7.28;;;;;;;;;;8173917;28;20364;-71
2021/09/12 08:46:25;;;;;;;15.77;6.97;;;;;;;;;;8173026;28;20373;-71
2021/09/12 08:50:29;;;;;;;10.98;6.45;;;;;;;;;;8220555;28;20473;-72
2021/09/12 08:54:33;;;;;;;10.82;6.22;;;;;;;;;;8207377;28;20369;-71
2021/09/12 08:58:39;;;;;;;9.25;6.10;;;;;;;;;;8224073;28;20376;-72
2021/09/12 09:02:45;;;;;;;9.45;5.90;;;;;;;;;;8202976;28;20490;-70
2021/09/12 09:07:06;;;;;;;13.15;6.32;;;;;;;;;;8223739;28;20480;-71
2021/09/12 09:11:10;;;;;;;9.65;5.13;;;;;;;;;;8223582;28;20046;-71
2021/09/12 09:15:20;;;;;;;13.93;6.88;;;;;;;;;;8224418;28;20042;-71
2021/09/12 09:19:26;;;;;;;5.25;4.30;;;;;;;;;;8223689;28;20463;-72
2021/09/12 09:23:30;;;;;;;13.93;5.75;;;;;;;;;;8204961;28;20038;-71
2021/09/12 09:28:06;;;;;;;7.05;4.65;;;;;;;;;;8205720;28;20056;-72
2021/09/12 09:32:13;;;;;;;8.17;4.97;;;;;;;;;;8209351;28;20345;-73
2021/09/12 09:36:18;;;;;;;6.40;3.28;;;;;;;;;;8210860;28;20410;-71
2021/09/12 09:40:23;;;;;;;4.22;2.85;;;;;;;;;;8229390;28;20415;-71
2021/09/12 09:44:27;;;;;;;4.55;3.15;;;;;;;;;;8228973;28;20467;-72
2021/09/12 09:48:35;;;;;;;9.80;3.50;;;;;;;;;;8180975;28;20068;-71
2021/09/12 09:52:46;;;;;;;5.78;3.58;;;;;;;;;;8181095;28;20042;-71
2021/09/12 09:56:52;;;;;;;4.78;3.17;;;;;;;;;;8176709;28;20473;-71
2021/09/12 10:00:56;;;;;;;7.25;4.05;;;;;;;;;;8161820;28;20499;-71
2021/09/12 10:05:06;;;;;;;4.82;2.67;;;;;;;;;;8178450;28;20503;-70
2021/09/12 10:09:16;;;;;;;4.18;2.83;;;;;;;;;;8179504;28;20373;-70
2021/09/12 10:13:25;;;;;;;7.22;3.22;;;;;;;;;;8197631;28;20392;-71
2021/09/12 10:17:36;;;;;;;4.28;2.85;;;;;;;;;;8179135;28;20626;-71
2021/09/12 10:21:50;;;;;;;3.83;2.90;;;;;;;;;;8179160;28;20481;-72
2021/09/12 10:25:59;;;;;;;4.63;3.30;;;;;;;;;;8178544;28;20501;-72
2021/09/12 10:30:23;;;;;;;7.88;4.20;;;;;;;;;;8162127;28;20487;-71
2021/09/12 10:34:29;;;;;;;8.73;3.80;;;;;;;;;;8175300;28;20064;-71
2021/09/12 10:38:33;;;;;;;6.53;4.13;;;;;;;;;;8173791;28;20465;-72
2021/09/12 10:42:45;;;;;;;5.30;3.60;;;;;;;;;;8191017;28;20453;-72
2021/09/12 10:47:07;;;;;;;4.95;3.40;;;;;;;;;;8174981;28;20107;-71
2021/09/12 10:51:10;;;;;;;6.20;3.55;;;;;;;;;;8194289;28;20453;-71
2021/09/12 10:55:16;;;;;;;7.38;4.00;;;;;;;;;;8177442;28;20026;-72
2021/09/12 10:59:20;;;;;;;6.75;3.78;;;;;;;;;;8175410;28;20351;-73
2021/09/12 11:03:25;;;;;;;6.97;3.88;;;;;;;;;;8191918;28;20361;-72
2021/09/12 11:07:57;;;;;;;4.28;2.88;;;;;;;;;;8193317;28;20469;-72
2021/09/12 11:12:04;;;;;;;5.68;3.38;;;;;;;;;;8172765;28;20352;-71
2021/09/12 11:16:18;;;;;;;5.65;3.30;;;;;;;;;;8186968;28;20475;-71
2021/09/12 11:20:38;;;;;;;6.70;3.60;;;;;;;;;;8174810;28;20377;-72
2021/09/12 11:24:42;;;;;;;4.00;3.22;;;;;;;;;;8190274;28;20830;-70
2021/09/12 11:29:04;;;;;;;6.63;3.65;;;;;;;;;;8194443;28;20373;-71
2021/09/12 11:33:09;;;;;;;5.10;3.28;;;;;;;;;;8145513;28;20581;-71
2021/09/12 11:37:19;;;;;;;3.83;2.90;;;;;;;;;;8167193;28;20495;-72
2021/09/12 11:41:26;;;;;;;5.80;2.50;;;;;;;;;;8163743;28;20038;-73
2021/09/12 11:45:32;;;;;;;4.55;2.28;;;;;;;;;;8176993;28;20453;-72
2021/09/12 11:49:36;;;;;;;5.28;2.80;;;;;;;;;;8190466;28;20080;-71
2021/09/12 11:53:40;;;;;;;5.22;3.00;;;;;;;;;;8223419;28;20042;-70
2021/09/12 11:58:07;;;;;;;4.60;2.28;;;;;;;;;;8203853;28;20037;-73
2021/09/12 12:02:17;;;;;;;6.18;3.42;;;;;;;;;;8206608;28;20460;-71
2021/09/12 12:06:22;;;;;;;11.18;3.70;;;;;;;;;;8206315;28;20318;-72
2021/09/12 12:10:38;;;;;;;4.20;3.00;;;;;;;;;;8204843;28;20396;-72
2021/09/12 12:14:48;;;;;;;4.22;3.05;;;;;;;;;;8222453;28;20361;-71
2021/09/12 12:19:10;;;;;;;4.22;2.80;;;;;;;;;;8205521;28;20456;-71
2021/09/12 12:23:20;;;;;;;5.53;3.13;;;;;;;;;;8221869;28;20364;-71
2021/09/12 12:27:24;;;;;;;4.82;3.45;;;;;;;;;;8205262;28;20464;-71
2021/09/12 12:31:29;;;;;;;4.82;3.45;;;;;;;;;;8222445;28;20046;-72
2021/09/12 12:35:35;;;;;;;9.18;4.38;;;;;;;;;;8206094;28;20448;-71
2021/09/12 12:39:40;;;;;;;4.47;3.47;;;;;;;;;;8203266;28;20476;-71
2021/09/12 12:43:44;;;;;;;7.78;3.42;;;;;;;;;;8188454;28;20415;-71
2021/09/12 12:47:49;;;;;;;7.80;3.63;;;;;;;;;;8221646;28;20360;-72
2021/09/12 12:52:06;;;;;;;5.65;3.10;;;;;;;;;;8222430;28;20071;-71
2021/09/12 12:56:16;;;;;;;4.43;3.30;;;;;;;;;;8222319;28;20360;-71
2021/09/12 13:00:23;;;;;;;6.70;3.58;;;;;;;;;;8205113;28;20345;-72
2021/09/12 13:04:26;;;;;;;4.95;3.63;;;;;;;;;;8205558;28;20494;-72
2021/09/12 13:08:32;;;;;;;6.78;4.10;;;;;;;;;;8229848;28;20526;-72
2021/09/12 13:12:37;;;;;;;11.18;3.75;;;;;;;;;;8225682;28;20457;-71
2021/09/12 13:16:42;;;;;;;4.45;2.78;;;;;;;;;;8179128;28;20049;-71
2021/09/12 13:20:49;;;;;;;3.67;2.80;;;;;;;;;;8210480;28;20404;-71
2021/09/12 13:24:54;;;;;;;4.88;2.67;;;;;;;;;;8212288;28;20360;-71
2021/09/12 13:28:58;;;;;;;5.72;3.00;;;;;;;;;;8229210;28;20495;-71
2021/09/12 13:33:04;;;;;;;4.50;2.30;;;;;;;;;;8210821;28;20045;-71
2021/09/12 13:37:09;;;;;;;4.40;2.73;;;;;;;;;;8211110;28;20372;-71
2021/09/12 13:41:15;;;;;;;6.95;2.78;;;;;;;;;;8195280;28;20472;-71
2021/09/12 13:45:21;;;;;;;10.43;3.47;;;;;;;;;;8226729;28;20448;-72
2021/09/12 13:49:24;;;;;;;16.35;5.40;;;;;;;;;;8209411;28;20076;-72
2021/09/12 13:53:28;;;;;;;24.95;7.78;;;;;;;;;;8208955;28;20495;-72
2021/09/12 13:57:32;;;;;;;15.57;4.68;;;;;;;;;;8228075;28;20365;-72
2021/09/12 14:01:36;;;;;;;9.45;3.88;;;;;;;;;;8198180;28;20454;-72
2021/09/12 14:05:41;;;;;;;7.45;3.75;;;;;;;;;;8225569;28;20495;-72
2021/09/12 14:09:49;;;;;;;18.05;7.20;;;;;;;;;;8226899;28;20460;-71
2021/09/12 14:13:55;;;;;;;7.80;4.03;;;;;;;;;;8227655;28;20471;-71
2021/09/12 14:17:59;;;;;;;2.63;2.20;;;;;;;;;;8204437;28;20050;-72
2021/09/12 14:22:04;;;;;;;2.83;2.15;;;;;;;;;;8192584;28;20099;-72
2021/09/12 14:26:08;;;;;;;2.53;1.98;;;;;;;;;;8192413;28;20325;-71
2021/09/12 14:30:14;;;;;;;3.50;2.30;;;;;;;;;;8226682;28;20377;-71
2021/09/12 14:34:31;;;;;;;3.38;2.50;;;;;;;;;;8226023;28;20330;-71
2021/09/12 14:38:34;;;;;;;3.78;2.35;;;;;;;;;;8224943;28;20479;-71
2021/09/12 14:42:39;;;;;;;4.30;2.63;;;;;;;;;;8226309;28;20476;-71
2021/09/12 14:46:44;;;;;;;3.88;2.40;;;;;;;;;;8226768;28;20053;-71
2021/09/12 14:50:48;;;;;;;3.45;2.20;;;;;;;;;;8194037;28;20481;-71
2021/09/12 14:54:54;;;;;;;5.70;2.10;;;;;;;;;;8194319;28;20385;-71
2021/09/12 14:58:58;;;;;;;2.97;2.17;;;;;;;;;;8176666;28;20042;-71
2021/09/12 15:03:04;;;;;;;2.47;1.92;;;;;;;;;;8192309;28;20338;-71
2021/09/12 15:07:08;;;;;;;6.18;2.30;;;;;;;;;;8192364;28;20360;-70
2021/09/12 15:11:12;;;;;;;4.78;2.00;;;;;;;;;;8176679;28;20353;-71
2021/09/12 15:15:17;;;;;;;4.35;2.13;;;;;;;;;;8194876;28;20499;-71
2021/09/12 15:19:22;;;;;;;4.45;2.08;;;;;;;;;;8194878;28;20053;-71
2021/09/12 15:23:26;;;;;;;2.78;1.98;;;;;;;;;;8192406;28;20357;-72
2021/09/12 15:27:30;;;;;;;3.30;1.92;;;;;;;;;;8191488;28;20447;-70
2021/09/12 15:31:41;;;;;;;3.60;2.17;;;;;;;;;;8194375;28;20356;-72
2021/09/12 15:35:45;;;;;;;4.95;2.15;;;;;;;;;;8195181;28;20500;-70
2021/09/12 15:39:49;;;;;;;5.00;2.13;;;;;;;;;;8175371;28;20465;-71
2021/09/12 15:43:54;;;;;;;2.63;2.05;;;;;;;;;;8193852;28;20056;-71
2021/09/12 15:47:59;;;;;;;3.45;1.80;;;;;;;;;;8194058;28;20492;-70
2021/09/12 15:52:04;;;;;;;5.32;2.00;;;;;;;;;;8195289;28;20503;-71
2021/09/12 15:56:10;;;;;;;3.67;2.42;;;;;;;;;;8159662;28;20389;-71
2021/09/12 16:00:14;;;;;;;3.35;2.35;;;;;;;;;;8192156;28;20481;-71
2021/09/12 16:04:19;;;;;;;3.13;2.13;;;;;;;;;;8190886;28;20050;-70
2021/09/12 16:08:25;;;;;;;7.75;4.00;;;;;;;;;;8176399;28;20046;-71
2021/09/12 16:12:30;;;;;;;10.60;4.22;;;;;;;;;;8175711;28;20042;-70
2021/09/12 16:16:36;;;;;;;4.55;3.13;;;;;;;;;;8193081;28;20346;-70
2021/09/12 16:20:45;;;;;;;4.70;3.15;;;;;;;;;;8176253;28;20468;-71
2021/09/12 16:24:51;;;;;;;4.78;2.72;;;;;;;;;;8193068;28;20465;-70
2021/09/12 16:28:56;;;;;;;3.83;2.88;;;;;;;;;;8175980;28;20479;-71
2021/09/12 16:33:01;;;;;;;5.05;3.20;;;;;;;;;;8160923;28;20421;-71
2021/09/12 16:37:06;;;;;;;4.18;2.83;;;;;;;;;;8176248;28;20477;-71
2021/09/12 16:41:11;;;;;;;5.30;3.03;;;;;;;;;;8159606;28;20069;-71
2021/09/12 16:45:24;;;;;;;4.93;2.88;;;;;;;;;;8175095;28;20481;-71
2021/09/12 16:49:30;;;;;;;6.15;3.05;;;;;;;;;;8177606;28;20365;-71
2021/09/12 16:53:37;;;;;;;6.20;3.38;;;;;;;;;;8175886;28;20374;-72
2021/09/12 16:57:42;;;;;;;7.60;2.65;;;;;;;;;;8176098;28;20364;-71
2021/09/12 17:01:47;;;;;;;5.40;2.80;;;;;;;;;;8192365;28;20473;-71
2021/09/12 17:05:52;;;;;;;5.90;2.63;;;;;;;;;;8176104;28;20350;-71
2021/09/12 17:09:58;;;;;;;10.38;2.63;;;;;;;;;;8192198;28;20318;-71
2021/09/12 17:14:04;;;;;;;4.00;2.83;;;;;;;;;;8193286;28;20581;-71
2021/09/12 17:18:09;;;;;;;3.45;2.65;;;;;;;;;;8192516;28;20494;-71
2021/09/12 17:22:15;;;;;;;4.25;3.10;;;;;;;;;;8176163;28;20365;-71
2021/09/12 17:26:20;;;;;;;5.05;2.60;;;;;;;;;;8189210;28;20384;-71
2021/09/12 17:30:26;;;;;;;3.17;2.58;;;;;;;;;;8193394;28;20480;-71
2021/09/12 17:34:33;;;;;;;4.37;2.93;;;;;;;;;;8194071;28;20392;-70
2021/09/12 17:38:38;;;;;;;10.13;3.28;;;;;;;;;;8192377;28;20042;-71
2021/09/12 17:42:43;;;;;;;4.63;3.35;;;;;;;;;;8191793;28;20042;-71
2021/09/12 17:46:48;;;;;;;4.75;3.15;;;;;;;;;;8191570;28;20384;-72
2021/09/12 17:50:53;;;;;;;9.70;5.47;;;;;;;;;;8175913;28;20049;-73
2021/09/12 17:54:59;;;;;;;8.35;4.88;;;;;;;;;;8197918;28;20046;-70
2021/09/12 17:59:05;;;;;;;6.00;3.90;;;;;;;;;;8179123;28;20080;-71
2021/09/12 18:03:11;;;;;;;6.25;4.53;;;;;;;;;;8197403;28;20054;-72
2021/09/12 18:07:17;;;;;;;7.28;3.78;;;;;;;;;;8197912;28;20045;-71
2021/09/12 18:11:22;;;;;;;5.47;3.60;;;;;;;;;;8180508;28;20338;-71
2021/09/12 18:15:28;;;;;;;5.97;3.58;;;;;;;;;;8180691;28;20311;-71
2021/09/12 18:19:33;;;;;;;8.88;3.72;;;;;;;;;;8163721;28;20362;-71
2021/09/12 18:23:39;;;;;;;11.25;8.23;;;;;;;;;;8196600;28;20486;-72
2021/09/12 18:27:44;;;;;;;12.43;7.82;;;;;;;;;;8178849;28;20372;-72
2021/09/12 18:31:50;;;;;;;5.88;3.85;;;;;;;;;;8196819;28;20473;-72
2021/09/12 18:35:55;;;;;;;6.03;3.92;;;;;;;;;;8196482;28;20050;-71
2021/09/12 18:40:00;;;;;;;6.65;3.92;;;;;;;;;;8195558;28;20404;-73
2021/09/12 18:44:06;;;;;;;5.25;3.47;;;;;;;;;;8197808;28;20334;-71
2021/09/12 18:48:11;;;;;;;5.30;3.30;;;;;;;;;;8196430;28;20370;-72
2021/09/12 18:52:16;;;;;;;9.75;4.05;;;;;;;;;;8180714;28;20661;-71
2021/09/12 18:56:23;;;;;;;5.15;3.15;;;;;;;;;;8196595;28;20503;-71
2021/09/12 19:00:28;;;;;;;5.15;3.13;;;;;;;;;;8179924;28;20083;-71
2021/09/12 19:04:34;;;;;;;5.13;3.33;;;;;;;;;;8162008;28;20042;-71
2021/09/12 19:08:39;;;;;;;7.45;4.40;;;;;;;;;;8196238;28;20072;-71
2021/09/12 19:12:46;;;;;;;5.10;3.90;;;;;;;;;;8178988;28;20370;-72
2021/09/12 19:16:53;;;;;;;5.35;3.17;;;;;;;;;;8195432;28;20060;-71
2021/09/12 19:21:01;;;;;;;8.15;3.50;;;;;;;;;;8195495;28;20381;-72
2021/09/12 19:25:06;;;;;;;5.38;4.38;;;;;;;;;;8194407;28;20058;-72
2021/09/12 19:29:11;;;;;;;4.50;3.90;;;;;;;;;;8177959;28;20369;-72
2021/09/12 19:33:18;;;;;;;4.28;3.10;;;;;;;;;;8196585;28;20077;-71
2021/09/12 19:37:24;;;;;;;3.92;3.33;;;;;;;;;;8195413;28;20084;-71
2021/09/12 19:41:29;;;;;;;4.88;3.35;;;;;;;;;;8176960;28;20057;-71
2021/09/12 19:45:35;;;;;;;5.28;4.15;;;;;;;;;;8177756;28;20057;-72
2021/09/12 19:49:40;;;;;;;5.32;3.28;;;;;;;;;;8194608;28;20353;-72
2021/09/12 19:53:46;;;;;;;6.57;3.85;;;;;;;;;;8194025;28;20408;-72
2021/09/12 19:57:51;;;;;;;8.10;4.43;;;;;;;;;;8176877;28;20377;-71
2021/09/12 20:01:56;;;;;;;5.90;4.50;;;;;;;;;;8177432;28;20350;-72
2021/09/12 20:06:02;;;;;;;5.82;4.43;;;;;;;;;;8194973;28;20069;-72
2021/09/12 20:10:07;;;;;;;8.05;4.53;;;;;;;;;;8162044;28;20361;-72
2021/09/12 20:14:13;;;;;;;6.78;4.68;;;;;;;;;;8193463;28;20366;-72
2021/09/12 20:18:20;;;;;;;5.57;4.13;;;;;;;;;;8194590;28;20054;-71
2021/09/12 20:22:28;;;;;;;6.55;4.15;;;;;;;;;;8140214;28;20050;-71
2021/09/12 20:26:33;;;;;;;11.15;4.70;;;;;;;;;;8176858;28;20068;-72
2021/09/12 20:30:38;;;;;;;12.30;5.25;;;;;;;;;;8194173;28;20045;-73
2021/09/12 20:34:44;;;;;;;12.10;5.82;;;;;;;;;;8193872;28;20326;-71
2021/09/12 20:38:49;;;;;;;9.77;5.72;;;;;;;;;;8193602;28;20045;-73
2021/09/12 20:42:54;;;;;;;8.88;4.95;;;;;;;;;;8160153;28;20354;-72
2021/09/12 20:46:59;;;;;;;11.70;5.15;;;;;;;;;;8177563;28;20054;-72
2021/09/12 20:51:03;;;;;;;8.45;4.80;;;;;;;;;;8175201;28;20484;-71
2021/09/12 20:55:09;;;;;;;11.98;6.03;;;;;;;;;;8194747;28;20369;-73
2021/09/12 20:59:14;;;;;;;6.25;4.75;;;;;;;;;;8192895;28;20365;-72
2021/09/12 21:03:20;;;;;;;6.35;4.20;;;;;;;;;;8175377;28;20038;-72
2021/09/12 21:07:27;;;;;;;5.22;4.20;;;;;;;;;;8160778;28;20425;-71
2021/09/12 21:11:32;;;;;;;6.10;4.53;;;;;;;;;;8192452;28;20481;-72
2021/09/12 21:15:37;;;;;;;5.80;4.35;;;;;;;;;;8157696;28;20362;-72
2021/09/12 21:19:42;;;;;;;7.13;4.30;;;;;;;;;;8192513;28;20469;-71
2021/09/12 21:23:47;;;;;;;6.07;4.47;;;;;;;;;;8192194;28;20358;-72
2021/09/12 21:27:52;;;;;;;12.43;4.22;;;;;;;;;;8180861;28;20357;-72
2021/09/12 21:31:58;;;;;;;5.47;4.28;;;;;;;;;;8180450;28;20366;-71
2021/09/12 21:36:03;;;;;;;6.07;4.35;;;;;;;;;;8199338;28;20472;-71
2021/09/12 21:40:09;;;;;;;5.72;4.43;;;;;;;;;;8198802;28;20050;-72
2021/09/12 21:44:14;;;;;;;5.10;4.38;;;;;;;;;;8197938;28;20054;-71
2021/09/12 21:48:19;;;;;;;6.45;4.70;;;;;;;;;;8164930;28;20078;-72
2021/09/12 21:52:24;;;;;;;6.03;4.20;;;;;;;;;;8198387;28;20377;-71
2021/09/12 21:56:29;;;;;;;7.75;4.80;;;;;;;;;;8164174;28;20042;-71
2021/09/12 22:00:34;;;;;;;5.15;4.13;;;;;;;;;;8198164;28;20033;-71
2021/09/12 22:04:39;;;;;;;5.85;4.28;;;;;;;;;;8166282;28;20068;-71
2021/09/12 22:08:45;;;;;;;7.22;5.00;;;;;;;;;;8163577;28;20072;-71
2021/09/12 22:12:50;;;;;;;7.15;4.75;;;;;;;;;;8199460;28;20046;-72
2021/09/12 22:16:55;;;;;;;5.55;4.13;;;;;;;;;;8165268;28;20355;-72
2021/09/12 22:21:00;;;;;;;6.75;4.15;;;;;;;;;;8196355;28;20543;-72
2021/09/12 22:25:08;;;;;;;5.85;4.13;;;;;;;;;;8179517;28;20473;-72
2021/09/12 22:29:13;;;;;;;5.38;4.20;;;;;;;;;;8197758;28;20453;-72
2021/09/12 22:33:22;;;;;;;10.95;4.20;;;;;;;;;;8196902;28;20469;-71
2021/09/12 22:37:28;;;;;;;6.45;4.20;;;;;;;;;;8163643;28;20438;-72
2021/09/12 22:41:33;;;;;;;6.00;4.18;;;;;;;;;;8179828;28;20520;-72
2021/09/12 22:45:40;;;;;;;5.10;4.15;;;;;;;;;;8180369;28;20477;-72
2021/09/12 22:49:46;;;;;;;5.65;4.38;;;;;;;;;;8179207;28;20485;-72
2021/09/12 22:53:51;;;;;;;6.70;4.53;;;;;;;;;;8179368;28;20456;-72
2021/09/12 22:57:56;;;;;;;8.73;5.07;;;;;;;;;;8177836;28;20538;-71
2021/09/12 23:02:01;;;;;;;9.93;4.75;;;;;;;;;;8198081;28;20361;-71
2021/09/12 23:06:07;;;;;;;9.50;4.25;;;;;;;;;;8177926;28;20385;-72
2021/09/12 23:10:12;;;;;;;9.02;4.65;;;;;;;;;;8162542;28;20038;-72
2021/09/12 23:14:17;;;;;;;6.68;4.70;;;;;;;;;;8178314;28;20603;-72
2021/09/12 23:18:23;;;;;;;7.88;5.22;;;;;;;;;;8179082;28;20487;-71
2021/09/12 23:22:29;;;;;;;6.75;4.78;;;;;;;;;;8195502;28;20380;-72
2021/09/12 23:26:34;;;;;;;12.07;5.32;;;;;;;;;;8177686;28;20334;-72
2021/09/12 23:30:39;;;;;;;7.90;4.85;;;;;;;;;;8194857;28;20499;-72
2021/09/12 23:34:45;;;;;;;8.70;4.88;;;;;;;;;;8177548;28;20033;-72
2021/09/12 23:38:51;;;;;;;7.75;4.65;;;;;;;;;;8177668;28;20064;-72
2021/09/12 23:42:55;;;;;;;7.72;4.63;;;;;;;;;;8194933;28;20041;-72
2021/09/12 23:47:00;;;;;;;6.20;4.60;;;;;;;;;;8194742;28;20067;-72
2021/09/12 23:51:05;;;;;;;7.32;5.05;;;;;;;;;;8175570;28;20064;-73
2021/09/12 23:55:12;;;;;;;6.97;4.78;;;;;;;;;;8176148;28;20457;-73
2021/09/12 23:59:17;;;;;;;7.18;4.72;;;;;;;;;;8177435;28;20050;-73
